sensor_id;sensor_type;location;lat;lon;timestamp;temperature;humidity
25949;DHT22;13961;51.178;4.448;2023-07-30T00:00:04;17.70;99.90
25949;DHT22;13961;51.178;4.448;2023-07-30T00:02:31;17.50;99.90
25949;DHT22;13961;51.178;4.448;2023-07-30T00:04:57;17.40;99.90
25949;DHT22;13961;51.178;4.448;2023-07-30T00:07:22;17.40;99.90
25949;DHT22;13961;51.178;4.448;2023-07-30T00:09:48;17.50;99.90
25949;DHT22;13961;51.178;4.448;2023-07-30T00:12:14;17.50;99.90
25949;DHT22;13961;51.178;4.448;2023-07-30T00:14:39;17.40;99.90
25949;DHT22;13961;51.178;4.448;2023-07-30T00:17:05;17.30;99.90
25949;DHT22;13961;51.178;4.448;2023-07-30T00:19:31;17.20;99.90
25949;DHT22;13961;51.178;4.448;2023-07-30T00:21:56;17.20;99.90
25949;DHT22;13961;51.178;4.448;2023-07-30T00:24:25;17.10;99.90
25949;DHT22;13961;51.178;4.448;2023-07-30T00:26:51;17.10;99.90
25949;DHT22;13961;51.178;4.448;2023-07-30T00:29:19;17.00;99.90
25949;DHT22;13961;51.178;4.448;2023-07-30T00:31:48;16.90;99.90
25949;DHT22;13961;51.178;4.448;2023-07-30T00:34:14;17.10;99.90
25949;DHT22;13961;51.178;4.448;2023-07-30T00:36:40;17.10;99.90
25949;DHT22;13961;51.178;4.448;2023-07-30T00:39:06;16.70;99.90
25949;DHT22;13961;51.178;4.448;2023-07-30T00:41:32;16.70;99.90
25949;DHT22;13961;51.178;4.448;2023-07-30T00:43:57;16.80;99.90
25949;DHT22;13961;51.178;4.448;2023-07-30T00:46:23;16.80;99.90
25949;DHT22;13961;51.178;4.448;2023-07-30T00:48:50;16.60;99.90
25949;DHT22;13961;51.178;4.448;2023-07-30T00:51:16;16.70;99.90
25949;DHT22;13961;51.178;4.448;2023-07-30T00:53:42;16.70;99.90
25949;DHT22;13961;51.178;4.448;2023-07-30T00:56:11;16.70;99.90
25949;DHT22;13961;51.178;4.448;2023-07-30T00:58:37;16.70;99.90
25949;DHT22;13961;51.178;4.448;2023-07-30T01:01:04;16.60;99.90
25949;DHT22;13961;51.178;4.448;2023-07-30T01:03:29;16.70;99.90
25949;DHT22;13961;51.178;4.448;2023-07-30T01:05:56;16.60;99.90
25949;DHT22;13961;51.178;4.448;2023-07-30T01:08:24;16.40;99.90
25949;DHT22;13961;51.178;4.448;2023-07-30T01:10:50;16.50;99.90
25949;DHT22;13961;51.178;4.448;2023-07-30T01:13:16;16.60;99.90
25949;DHT22;13961;51.178;4.448;2023-07-30T01:15:42;16.60;99.90
25949;DHT22;13961;51.178;4.448;2023-07-30T01:18:09;16.60;99.90
25949;DHT22;13961;51.178;4.448;2023-07-30T01:20:34;16.50;99.90
25949;DHT22;13961;51.178;4.448;2023-07-30T01:23:00;16.40;99.90
25949;DHT22;13961;51.178;4.448;2023-07-30T01:25:29;16.40;99.90
25949;DHT22;13961;51.178;4.448;2023-07-30T01:27:59;16.40;99.90
25949;DHT22;13961;51.178;4.448;2023-07-30T01:30:32;16.40;99.90
25949;DHT22;13961;51.178;4.448;2023-07-30T01:32:59;16.50;99.90
25949;DHT22;13961;51.178;4.448;2023-07-30T01:35:31;16.60;99.90
25949;DHT22;13961;51.178;4.448;2023-07-30T01:37:58;16.60;99.90
25949;DHT22;13961;51.178;4.448;2023-07-30T01:40:24;16.50;99.90
25949;DHT22;13961;51.178;4.448;2023-07-30T01:42:50;16.40;99.90
25949;DHT22;13961;51.178;4.448;2023-07-30T01:45:16;16.30;99.90
25949;DHT22;13961;51.178;4.448;2023-07-30T01:47:43;16.30;99.90
25949;DHT22;13961;51.178;4.448;2023-07-30T01:50:12;16.40;99.90
25949;DHT22;13961;51.178;4.448;2023-07-30T01:52:38;16.60;99.90
25949;DHT22;13961;51.178;4.448;2023-07-30T01:55:04;16.70;99.90
25949;DHT22;13961;51.178;4.448;2023-07-30T01:57:30;16.70;99.90
25949;DHT22;13961;51.178;4.448;2023-07-30T01:59:57;16.70;99.90
25949;DHT22;13961;51.178;4.448;2023-07-30T02:02:26;16.60;99.90
25949;DHT22;13961;51.178;4.448;2023-07-30T02:04:54;16.50;99.90
25949;DHT22;13961;51.178;4.448;2023-07-30T02:07:19;16.50;99.90
25949;DHT22;13961;51.178;4.448;2023-07-30T02:09:45;16.30;99.90
25949;DHT22;13961;51.178;4.448;2023-07-30T02:12:10;16.20;99.90
25949;DHT22;13961;51.178;4.448;2023-07-30T02:14:37;16.30;99.90
25949;DHT22;13961;51.178;4.448;2023-07-30T02:17:03;16.30;99.90
25949;DHT22;13961;51.178;4.448;2023-07-30T02:19:29;16.30;99.90
25949;DHT22;13961;51.178;4.448;2023-07-30T02:21:58;16.30;99.90
25949;DHT22;13961;51.178;4.448;2023-07-30T02:24:25;16.20;99.90
25949;DHT22;13961;51.178;4.448;2023-07-30T02:26:50;16.20;99.90
25949;DHT22;13961;51.178;4.448;2023-07-30T02:29:16;16.30;99.90
25949;DHT22;13961;51.178;4.448;2023-07-30T02:31:42;16.20;99.90
25949;DHT22;13961;51.178;4.448;2023-07-30T02:34:07;16.30;99.90
25949;DHT22;13961;51.178;4.448;2023-07-30T02:36:33;16.20;99.90
25949;DHT22;13961;51.178;4.448;2023-07-30T02:39:01;16.40;99.90
25949;DHT22;13961;51.178;4.448;2023-07-30T02:41:26;16.40;99.90
25949;DHT22;13961;51.178;4.448;2023-07-30T02:43:52;16.50;99.90
25949;DHT22;13961;51.178;4.448;2023-07-30T02:46:17;16.70;99.90
25949;DHT22;13961;51.178;4.448;2023-07-30T02:48:45;16.80;99.90
25949;DHT22;13961;51.178;4.448;2023-07-30T02:51:11;16.90;99.90
25949;DHT22;13961;51.178;4.448;2023-07-30T02:53:39;16.80;99.90
25949;DHT22;13961;51.178;4.448;2023-07-30T02:56:08;16.90;99.90
25949;DHT22;13961;51.178;4.448;2023-07-30T02:58:34;16.80;99.90
25949;DHT22;13961;51.178;4.448;2023-07-30T03:01:07;16.90;99.90
25949;DHT22;13961;51.178;4.448;2023-07-30T03:03:33;16.80;99.90
25949;DHT22;13961;51.178;4.448;2023-07-30T03:06:01;16.90;99.90
25949;DHT22;13961;51.178;4.448;2023-07-30T03:08:27;17.10;99.90
25949;DHT22;13961;51.178;4.448;2023-07-30T03:10:58;17.20;99.90
25949;DHT22;13961;51.178;4.448;2023-07-30T03:13:25;17.10;99.90
25949;DHT22;13961;51.178;4.448;2023-07-30T03:15:51;17.10;99.90
25949;DHT22;13961;51.178;4.448;2023-07-30T03:18:19;17.10;99.90
25949;DHT22;13961;51.178;4.448;2023-07-30T03:20:48;17.10;99.90
25949;DHT22;13961;51.178;4.448;2023-07-30T03:23:14;17.10;99.90
25949;DHT22;13961;51.178;4.448;2023-07-30T03:25:42;17.10;99.90
25949;DHT22;13961;51.178;4.448;2023-07-30T03:28:09;17.00;99.90
25949;DHT22;13961;51.178;4.448;2023-07-30T03:30:34;17.00;99.90
25949;DHT22;13961;51.178;4.448;2023-07-30T03:33:00;16.90;99.90
25949;DHT22;13961;51.178;4.448;2023-07-30T03:35:26;16.90;99.90
25949;DHT22;13961;51.178;4.448;2023-07-30T03:37:51;17.00;99.90
25949;DHT22;13961;51.178;4.448;2023-07-30T03:40:17;17.00;99.90
25949;DHT22;13961;51.178;4.448;2023-07-30T03:42:43;17.00;99.90
25949;DHT22;13961;51.178;4.448;2023-07-30T03:45:14;17.00;99.90
25949;DHT22;13961;51.178;4.448;2023-07-30T03:47:40;17.00;99.90
25949;DHT22;13961;51.178;4.448;2023-07-30T03:50:06;16.90;99.90
25949;DHT22;13961;51.178;4.448;2023-07-30T03:52:31;16.90;99.90
25949;DHT22;13961;51.178;4.448;2023-07-30T03:54:57;16.80;99.90
25949;DHT22;13961;51.178;4.448;2023-07-30T03:57:23;16.80;99.90
25949;DHT22;13961;51.178;4.448;2023-07-30T03:59:48;16.70;99.90
25949;DHT22;13961;51.178;4.448;2023-07-30T04:02:14;16.60;99.90
25949;DHT22;13961;51.178;4.448;2023-07-30T04:04:44;16.50;99.90
25949;DHT22;13961;51.178;4.448;2023-07-30T04:07:11;16.60;99.90
25949;DHT22;13961;51.178;4.448;2023-07-30T04:09:37;16.60;99.90
25949;DHT22;13961;51.178;4.448;2023-07-30T04:12:03;16.70;99.90
25949;DHT22;13961;51.178;4.448;2023-07-30T04:14:28;16.80;99.90
25949;DHT22;13961;51.178;4.448;2023-07-30T04:16:54;16.60;99.90
25949;DHT22;13961;51.178;4.448;2023-07-30T04:19:20;16.80;99.90
25949;DHT22;13961;51.178;4.448;2023-07-30T04:21:46;16.80;99.90
25949;DHT22;13961;51.178;4.448;2023-07-30T04:24:13;16.90;99.90
25949;DHT22;13961;51.178;4.448;2023-07-30T04:26:39;16.70;99.90
25949;DHT22;13961;51.178;4.448;2023-07-30T04:29:05;16.90;99.90
25949;DHT22;13961;51.178;4.448;2023-07-30T04:31:31;16.90;99.90
25949;DHT22;13961;51.178;4.448;2023-07-30T04:33:58;17.00;99.90
25949;DHT22;13961;51.178;4.448;2023-07-30T04:36:24;17.10;99.90
25949;DHT22;13961;51.178;4.448;2023-07-30T04:38:50;17.00;99.90
25949;DHT22;13961;51.178;4.448;2023-07-30T04:41:16;17.00;99.90
25949;DHT22;13961;51.178;4.448;2023-07-30T04:43:44;17.00;99.90
25949;DHT22;13961;51.178;4.448;2023-07-30T04:46:09;16.90;99.90
25949;DHT22;13961;51.178;4.448;2023-07-30T04:48:37;16.90;99.90
25949;DHT22;13961;51.178;4.448;2023-07-30T04:51:03;16.90;99.90
25949;DHT22;13961;51.178;4.448;2023-07-30T04:53:29;17.10;99.90
25949;DHT22;13961;51.178;4.448;2023-07-30T04:55:56;17.10;99.90
25949;DHT22;13961;51.178;4.448;2023-07-30T04:58:23;17.00;99.90
25949;DHT22;13961;51.178;4.448;2023-07-30T05:00:52;17.00;99.90
25949;DHT22;13961;51.178;4.448;2023-07-30T05:03:17;16.80;99.90
25949;DHT22;13961;51.178;4.448;2023-07-30T05:05:44;16.70;99.90
25949;DHT22;13961;51.178;4.448;2023-07-30T05:08:15;16.90;99.90
25949;DHT22;13961;51.178;4.448;2023-07-30T05:10:44;16.90;99.90
25949;DHT22;13961;51.178;4.448;2023-07-30T05:13:10;17.00;99.90
25949;DHT22;13961;51.178;4.448;2023-07-30T05:15:38;17.00;99.90
25949;DHT22;13961;51.178;4.448;2023-07-30T05:18:04;17.00;99.90
25949;DHT22;13961;51.178;4.448;2023-07-30T05:20:30;17.20;99.90
25949;DHT22;13961;51.178;4.448;2023-07-30T05:22:56;17.30;99.90
25949;DHT22;13961;51.178;4.448;2023-07-30T05:25:22;17.40;99.90
25949;DHT22;13961;51.178;4.448;2023-07-30T05:27:48;17.30;99.90
25949;DHT22;13961;51.178;4.448;2023-07-30T05:30:14;17.40;99.90
25949;DHT22;13961;51.178;4.448;2023-07-30T05:32:39;17.30;99.90
25949;DHT22;13961;51.178;4.448;2023-07-30T05:35:05;17.50;99.90
25949;DHT22;13961;51.178;4.448;2023-07-30T05:37:31;17.40;99.90
25949;DHT22;13961;51.178;4.448;2023-07-30T05:39:57;17.50;99.90
25949;DHT22;13961;51.178;4.448;2023-07-30T05:42:24;17.50;99.90
25949;DHT22;13961;51.178;4.448;2023-07-30T05:44:52;17.50;99.90
25949;DHT22;13961;51.178;4.448;2023-07-30T05:47:20;17.50;99.90
25949;DHT22;13961;51.178;4.448;2023-07-30T05:49:46;17.40;99.90
25949;DHT22;13961;51.178;4.448;2023-07-30T05:52:11;17.50;99.90
25949;DHT22;13961;51.178;4.448;2023-07-30T05:54:37;17.50;99.90
25949;DHT22;13961;51.178;4.448;2023-07-30T05:57:04;17.50;99.90
25949;DHT22;13961;51.178;4.448;2023-07-30T05:59:36;17.40;99.90
25949;DHT22;13961;51.178;4.448;2023-07-30T06:02:02;17.30;99.90
25949;DHT22;13961;51.178;4.448;2023-07-30T06:04:29;17.40;99.90
25949;DHT22;13961;51.178;4.448;2023-07-30T06:06:55;17.30;99.90
25949;DHT22;13961;51.178;4.448;2023-07-30T06:09:21;17.30;99.90
25949;DHT22;13961;51.178;4.448;2023-07-30T06:11:46;17.30;99.90
25949;DHT22;13961;51.178;4.448;2023-07-30T06:14:15;17.30;99.90
25949;DHT22;13961;51.178;4.448;2023-07-30T06:16:41;17.30;99.90
25949;DHT22;13961;51.178;4.448;2023-07-30T06:19:09;17.30;99.90
25949;DHT22;13961;51.178;4.448;2023-07-30T06:21:38;17.40;99.90
25949;DHT22;13961;51.178;4.448;2023-07-30T06:24:10;17.50;99.90
25949;DHT22;13961;51.178;4.448;2023-07-30T06:26:38;17.70;99.90
25949;DHT22;13961;51.178;4.448;2023-07-30T06:29:04;17.80;99.90
25949;DHT22;13961;51.178;4.448;2023-07-30T06:31:30;17.90;99.90
25949;DHT22;13961;51.178;4.448;2023-07-30T06:33:55;17.80;99.90
25949;DHT22;13961;51.178;4.448;2023-07-30T06:36:21;17.80;99.90
25949;DHT22;13961;51.178;4.448;2023-07-30T06:38:49;17.70;99.90
25949;DHT22;13961;51.178;4.448;2023-07-30T06:41:15;18.00;99.90
25949;DHT22;13961;51.178;4.448;2023-07-30T06:43:42;18.00;99.90
25949;DHT22;13961;51.178;4.448;2023-07-30T06:46:08;18.10;99.90
25949;DHT22;13961;51.178;4.448;2023-07-30T06:48:33;18.90;99.90
25949;DHT22;13961;51.178;4.448;2023-07-30T06:50:59;19.80;99.90
25949;DHT22;13961;51.178;4.448;2023-07-30T06:53:24;19.60;99.90
25949;DHT22;13961;51.178;4.448;2023-07-30T06:55:50;19.70;99.90
25949;DHT22;13961;51.178;4.448;2023-07-30T06:58:16;19.80;99.90
25949;DHT22;13961;51.178;4.448;2023-07-30T07:00:41;19.30;99.90
25949;DHT22;13961;51.178;4.448;2023-07-30T07:03:07;19.30;99.90
25949;DHT22;13961;51.178;4.448;2023-07-30T07:05:33;19.20;99.90
25949;DHT22;13961;51.178;4.448;2023-07-30T07:07:58;19.40;99.90
25949;DHT22;13961;51.178;4.448;2023-07-30T07:10:26;20.20;99.90
25949;DHT22;13961;51.178;4.448;2023-07-30T07:12:51;20.30;99.90
25949;DHT22;13961;51.178;4.448;2023-07-30T07:15:17;20.50;99.90
25949;DHT22;13961;51.178;4.448;2023-07-30T07:17:43;20.80;99.90
25949;DHT22;13961;51.178;4.448;2023-07-30T07:20:09;21.10;99.90
25949;DHT22;13961;51.178;4.448;2023-07-30T07:22:37;20.60;99.90
25949;DHT22;13961;51.178;4.448;2023-07-30T07:25:03;20.80;99.90
25949;DHT22;13961;51.178;4.448;2023-07-30T07:27:28;21.20;99.90
25949;DHT22;13961;51.178;4.448;2023-07-30T07:29:54;20.60;99.90
25949;DHT22;13961;51.178;4.448;2023-07-30T07:32:20;20.30;99.90
25949;DHT22;13961;51.178;4.448;2023-07-30T07:34:47;19.80;99.90
25949;DHT22;13961;51.178;4.448;2023-07-30T07:37:13;19.70;99.90
25949;DHT22;13961;51.178;4.448;2023-07-30T07:39:41;19.40;99.90
25949;DHT22;13961;51.178;4.448;2023-07-30T07:42:07;19.50;99.90
25949;DHT22;13961;51.178;4.448;2023-07-30T07:44:32;20.60;99.90
25949;DHT22;13961;51.178;4.448;2023-07-30T07:46:58;21.00;99.90
25949;DHT22;13961;51.178;4.448;2023-07-30T07:49:24;21.70;99.90
25949;DHT22;13961;51.178;4.448;2023-07-30T07:51:49;21.90;99.90
25949;DHT22;13961;51.178;4.448;2023-07-30T07:54:16;22.50;99.90
25949;DHT22;13961;51.178;4.448;2023-07-30T07:56:43;22.20;99.90
25949;DHT22;13961;51.178;4.448;2023-07-30T07:59:10;22.30;99.90
25949;DHT22;13961;51.178;4.448;2023-07-30T08:01:35;21.50;99.90
25949;DHT22;13961;51.178;4.448;2023-07-30T08:04:02;21.20;99.90
25949;DHT22;13961;51.178;4.448;2023-07-30T08:06:28;20.80;99.90
25949;DHT22;13961;51.178;4.448;2023-07-30T08:08:55;20.30;99.90
25949;DHT22;13961;51.178;4.448;2023-07-30T08:11:21;19.80;99.90
25949;DHT22;13961;51.178;4.448;2023-07-30T08:13:47;20.00;99.90
25949;DHT22;13961;51.178;4.448;2023-07-30T08:16:12;20.20;99.90
25949;DHT22;13961;51.178;4.448;2023-07-30T08:18:38;20.30;99.90
25949;DHT22;13961;51.178;4.448;2023-07-30T08:21:04;20.40;99.90
25949;DHT22;13961;51.178;4.448;2023-07-30T08:23:29;20.70;99.90
25949;DHT22;13961;51.178;4.448;2023-07-30T08:25:55;20.80;99.90
25949;DHT22;13961;51.178;4.448;2023-07-30T08:28:21;21.40;99.90
25949;DHT22;13961;51.178;4.448;2023-07-30T08:30:46;21.40;99.90
25949;DHT22;13961;51.178;4.448;2023-07-30T08:33:12;21.40;99.90
25949;DHT22;13961;51.178;4.448;2023-07-30T08:35:38;21.70;99.90
25949;DHT22;13961;51.178;4.448;2023-07-30T08:38:04;21.40;99.90
25949;DHT22;13961;51.178;4.448;2023-07-30T08:40:29;21.40;99.90
25949;DHT22;13961;51.178;4.448;2023-07-30T08:42:56;21.60;99.90
25949;DHT22;13961;51.178;4.448;2023-07-30T08:45:23;21.50;99.90
25949;DHT22;13961;51.178;4.448;2023-07-30T08:47:48;22.10;99.90
25949;DHT22;13961;51.178;4.448;2023-07-30T08:50:14;21.90;99.90
25949;DHT22;13961;51.178;4.448;2023-07-30T08:52:40;22.20;99.90
25949;DHT22;13961;51.178;4.448;2023-07-30T08:55:07;21.90;99.90
25949;DHT22;13961;51.178;4.448;2023-07-30T08:57:33;22.10;99.90
25949;DHT22;13961;51.178;4.448;2023-07-30T09:00:10;22.30;99.90
25949;DHT22;13961;51.178;4.448;2023-07-30T09:02:41;22.40;99.90
25949;DHT22;13961;51.178;4.448;2023-07-30T09:05:08;22.20;99.90
25949;DHT22;13961;51.178;4.448;2023-07-30T09:07:34;22.50;99.90
25949;DHT22;13961;51.178;4.448;2023-07-30T09:10:02;23.00;99.90
25949;DHT22;13961;51.178;4.448;2023-07-30T09:12:35;22.80;99.90
25949;DHT22;13961;51.178;4.448;2023-07-30T09:15:04;22.40;99.90
25949;DHT22;13961;51.178;4.448;2023-07-30T09:17:30;22.20;99.90
25949;DHT22;13961;51.178;4.448;2023-07-30T09:19:59;22.50;99.90
25949;DHT22;13961;51.178;4.448;2023-07-30T09:22:29;22.40;99.90
25949;DHT22;13961;51.178;4.448;2023-07-30T09:24:56;22.90;99.90
25949;DHT22;13961;51.178;4.448;2023-07-30T09:27:25;22.70;99.90
25949;DHT22;13961;51.178;4.448;2023-07-30T09:29:54;23.00;99.90
25949;DHT22;13961;51.178;4.448;2023-07-30T09:32:20;23.40;99.90
25949;DHT22;13961;51.178;4.448;2023-07-30T09:34:46;23.40;99.90
25949;DHT22;13961;51.178;4.448;2023-07-30T09:37:13;23.00;99.90
25949;DHT22;13961;51.178;4.448;2023-07-30T09:39:39;22.20;99.90
25949;DHT22;13961;51.178;4.448;2023-07-30T09:42:06;21.90;99.90
25949;DHT22;13961;51.178;4.448;2023-07-30T09:44:32;21.90;99.90
25949;DHT22;13961;51.178;4.448;2023-07-30T09:47:01;22.00;99.90
25949;DHT22;13961;51.178;4.448;2023-07-30T09:49:30;22.20;99.90
25949;DHT22;13961;51.178;4.448;2023-07-30T09:51:57;21.80;99.90
25949;DHT22;13961;51.178;4.448;2023-07-30T09:54:23;21.80;99.90
25949;DHT22;13961;51.178;4.448;2023-07-30T09:56:51;21.80;99.90
25949;DHT22;13961;51.178;4.448;2023-07-30T09:59:17;21.40;99.90
25949;DHT22;13961;51.178;4.448;2023-07-30T10:01:48;21.50;99.90
25949;DHT22;13961;51.178;4.448;2023-07-30T10:04:15;21.70;99.90
25949;DHT22;13961;51.178;4.448;2023-07-30T10:06:56;22.00;99.90
25949;DHT22;13961;51.178;4.448;2023-07-30T10:09:27;22.20;99.90
25949;DHT22;13961;51.178;4.448;2023-07-30T10:11:54;22.80;99.90
25949;DHT22;13961;51.178;4.448;2023-07-30T10:14:22;22.60;99.90
25949;DHT22;13961;51.178;4.448;2023-07-30T10:16:59;22.50;99.90
25949;DHT22;13961;51.178;4.448;2023-07-30T10:19:28;22.20;99.90
25949;DHT22;13961;51.178;4.448;2023-07-30T10:22:02;22.50;99.90
25949;DHT22;13961;51.178;4.448;2023-07-30T10:25:04;22.50;99.90
25949;DHT22;13961;51.178;4.448;2023-07-30T10:27:40;22.30;99.90
25949;DHT22;13961;51.178;4.448;2023-07-30T10:33:03;23.10;99.90
25949;DHT22;13961;51.178;4.448;2023-07-30T10:35:52;23.10;99.90
25949;DHT22;13961;51.178;4.448;2023-07-30T10:38:28;23.00;99.90
25949;DHT22;13961;51.178;4.448;2023-07-30T10:41:14;23.10;99.90
25949;DHT22;13961;51.178;4.448;2023-07-30T10:43:48;23.20;99.90
25949;DHT22;13961;51.178;4.448;2023-07-30T10:46:16;23.30;99.90
25949;DHT22;13961;51.178;4.448;2023-07-30T10:48:44;23.80;99.90
25949;DHT22;13961;51.178;4.448;2023-07-30T10:51:12;23.60;99.90
25949;DHT22;13961;51.178;4.448;2023-07-30T10:53:44;23.40;99.90
25949;DHT22;13961;51.178;4.448;2023-07-30T10:56:12;23.40;99.90
25949;DHT22;13961;51.178;4.448;2023-07-30T10:58:38;22.80;99.90
25949;DHT22;13961;51.178;4.448;2023-07-30T11:01:05;22.90;99.90
25949;DHT22;13961;51.178;4.448;2023-07-30T11:03:32;22.60;99.90
25949;DHT22;13961;51.178;4.448;2023-07-30T11:05:58;22.30;99.90
25949;DHT22;13961;51.178;4.448;2023-07-30T11:08:38;22.30;99.90
25949;DHT22;13961;51.178;4.448;2023-07-30T11:11:06;22.40;99.90
25949;DHT22;13961;51.178;4.448;2023-07-30T11:13:39;22.70;99.90
25949;DHT22;13961;51.178;4.448;2023-07-30T11:16:06;22.60;99.90
25949;DHT22;13961;51.178;4.448;2023-07-30T11:18:32;22.80;99.90
25949;DHT22;13961;51.178;4.448;2023-07-30T11:21:08;23.20;99.90
25949;DHT22;13961;51.178;4.448;2023-07-30T11:23:39;23.40;99.90
25949;DHT22;13961;51.178;4.448;2023-07-30T11:26:06;23.50;99.90
25949;DHT22;13961;51.178;4.448;2023-07-30T11:28:37;23.40;99.90
25949;DHT22;13961;51.178;4.448;2023-07-30T11:33:32;23.10;99.90
25949;DHT22;13961;51.178;4.448;2023-07-30T11:36:00;23.30;99.90
25949;DHT22;13961;51.178;4.448;2023-07-30T11:38:28;23.20;99.90
25949;DHT22;13961;51.178;4.448;2023-07-30T11:40:55;23.30;99.90
25949;DHT22;13961;51.178;4.448;2023-07-30T11:43:22;23.20;99.90
25949;DHT22;13961;51.178;4.448;2023-07-30T11:45:48;23.00;99.90
25949;DHT22;13961;51.178;4.448;2023-07-30T11:48:16;22.70;99.90
25949;DHT22;13961;51.178;4.448;2023-07-30T11:50:46;22.70;99.90
25949;DHT22;13961;51.178;4.448;2023-07-30T11:53:15;22.80;99.90
25949;DHT22;13961;51.178;4.448;2023-07-30T11:55:43;23.10;99.90
25949;DHT22;13961;51.178;4.448;2023-07-30T11:58:10;23.20;99.90
25949;DHT22;13961;51.178;4.448;2023-07-30T12:00:37;22.90;99.90
25949;DHT22;13961;51.178;4.448;2023-07-30T12:03:04;22.50;99.90
25949;DHT22;13961;51.178;4.448;2023-07-30T12:05:34;22.30;99.90
25949;DHT22;13961;51.178;4.448;2023-07-30T12:08:01;22.40;99.90
25949;DHT22;13961;51.178;4.448;2023-07-30T12:10:41;22.80;99.90
25949;DHT22;13961;51.178;4.448;2023-07-30T12:13:15;23.20;99.90
25949;DHT22;13961;51.178;4.448;2023-07-30T12:15:55;23.50;99.90
25949;DHT22;13961;51.178;4.448;2023-07-30T12:18:23;23.60;99.90
25949;DHT22;13961;51.178;4.448;2023-07-30T12:20:50;23.30;99.90
25949;DHT22;13961;51.178;4.448;2023-07-30T12:23:16;23.20;99.90
25949;DHT22;13961;51.178;4.448;2023-07-30T12:25:42;23.30;99.90
25949;DHT22;13961;51.178;4.448;2023-07-30T12:28:07;23.90;99.90
25949;DHT22;13961;51.178;4.448;2023-07-30T12:30:33;24.10;99.90
25949;DHT22;13961;51.178;4.448;2023-07-30T12:33:05;24.30;99.90
25949;DHT22;13961;51.178;4.448;2023-07-30T12:35:31;24.30;99.90
25949;DHT22;13961;51.178;4.448;2023-07-30T12:37:58;24.40;99.90
25949;DHT22;13961;51.178;4.448;2023-07-30T12:40:24;24.40;99.90
25949;DHT22;13961;51.178;4.448;2023-07-30T12:42:49;24.20;99.90
25949;DHT22;13961;51.178;4.448;2023-07-30T12:45:15;24.20;99.90
25949;DHT22;13961;51.178;4.448;2023-07-30T12:47:41;23.90;99.90
25949;DHT22;13961;51.178;4.448;2023-07-30T12:50:07;23.90;99.90
25949;DHT22;13961;51.178;4.448;2023-07-30T12:52:34;24.00;99.90
25949;DHT22;13961;51.178;4.448;2023-07-30T12:55:00;24.10;99.90
25949;DHT22;13961;51.178;4.448;2023-07-30T12:57:28;24.00;99.90
25949;DHT22;13961;51.178;4.448;2023-07-30T12:59:53;23.80;99.90
25949;DHT22;13961;51.178;4.448;2023-07-30T13:02:20;24.30;99.90
25949;DHT22;13961;51.178;4.448;2023-07-30T13:04:46;24.30;99.90
25949;DHT22;13961;51.178;4.448;2023-07-30T13:07:11;24.50;99.90
25949;DHT22;13961;51.178;4.448;2023-07-30T13:09:37;24.70;99.90
25949;DHT22;13961;51.178;4.448;2023-07-30T13:12:03;24.50;99.90
25949;DHT22;13961;51.178;4.448;2023-07-30T13:14:29;24.40;99.90
25949;DHT22;13961;51.178;4.448;2023-07-30T13:16:55;24.40;99.90
25949;DHT22;13961;51.178;4.448;2023-07-30T13:19:21;24.30;99.90
25949;DHT22;13961;51.178;4.448;2023-07-30T13:21:46;24.10;99.90
25949;DHT22;13961;51.178;4.448;2023-07-30T13:24:12;24.00;99.90
25949;DHT22;13961;51.178;4.448;2023-07-30T13:26:38;24.00;99.90
25949;DHT22;13961;51.178;4.448;2023-07-30T13:29:04;24.10;99.90
25949;DHT22;13961;51.178;4.448;2023-07-30T13:31:30;24.20;99.90
25949;DHT22;13961;51.178;4.448;2023-07-30T13:33:56;24.60;99.90
25949;DHT22;13961;51.178;4.448;2023-07-30T13:36:22;24.60;99.90
25949;DHT22;13961;51.178;4.448;2023-07-30T13:38:47;24.50;99.90
25949;DHT22;13961;51.178;4.448;2023-07-30T13:41:13;24.40;99.90
25949;DHT22;13961;51.178;4.448;2023-07-30T13:43:39;24.70;99.90
25949;DHT22;13961;51.178;4.448;2023-07-30T13:46:06;24.40;99.90
25949;DHT22;13961;51.178;4.448;2023-07-30T13:48:32;24.40;99.90
25949;DHT22;13961;51.178;4.448;2023-07-30T13:50:57;24.60;99.90
25949;DHT22;13961;51.178;4.448;2023-07-30T13:53:23;24.70;99.90
25949;DHT22;13961;51.178;4.448;2023-07-30T13:55:49;25.00;99.90
25949;DHT22;13961;51.178;4.448;2023-07-30T13:58:14;25.50;99.90
25949;DHT22;13961;51.178;4.448;2023-07-30T14:00:41;25.40;99.90
25949;DHT22;13961;51.178;4.448;2023-07-30T14:03:08;25.40;99.90
25949;DHT22;13961;51.178;4.448;2023-07-30T14:05:33;25.30;99.90
25949;DHT22;13961;51.178;4.448;2023-07-30T14:08:00;25.00;99.90
25949;DHT22;13961;51.178;4.448;2023-07-30T14:10:26;25.40;99.90
25949;DHT22;13961;51.178;4.448;2023-07-30T14:12:52;25.40;99.90
25949;DHT22;13961;51.178;4.448;2023-07-30T14:15:18;25.20;99.90
25949;DHT22;13961;51.178;4.448;2023-07-30T14:17:44;25.30;99.90
25949;DHT22;13961;51.178;4.448;2023-07-30T14:20:10;25.20;99.90
25949;DHT22;13961;51.178;4.448;2023-07-30T14:22:35;24.70;99.90
25949;DHT22;13961;51.178;4.448;2023-07-30T14:25:02;24.60;99.90
25949;DHT22;13961;51.178;4.448;2023-07-30T14:27:28;24.50;99.90
25949;DHT22;13961;51.178;4.448;2023-07-30T14:29:53;24.50;99.90
25949;DHT22;13961;51.178;4.448;2023-07-30T14:32:23;24.70;99.90
25949;DHT22;13961;51.178;4.448;2023-07-30T14:34:50;24.60;99.90
25949;DHT22;13961;51.178;4.448;2023-07-30T14:37:15;24.40;99.90
25949;DHT22;13961;51.178;4.448;2023-07-30T14:39:41;24.40;99.90
25949;DHT22;13961;51.178;4.448;2023-07-30T14:42:07;24.40;99.90
25949;DHT22;13961;51.178;4.448;2023-07-30T14:44:34;24.10;99.90
25949;DHT22;13961;51.178;4.448;2023-07-30T14:47:00;23.90;99.90
25949;DHT22;13961;51.178;4.448;2023-07-30T14:49:26;23.80;99.90
25949;DHT22;13961;51.178;4.448;2023-07-30T14:51:52;23.90;99.90
25949;DHT22;13961;51.178;4.448;2023-07-30T14:54:18;24.00;99.90
25949;DHT22;13961;51.178;4.448;2023-07-30T14:56:44;23.90;99.90
25949;DHT22;13961;51.178;4.448;2023-07-30T14:59:10;23.90;99.90
25949;DHT22;13961;51.178;4.448;2023-07-30T15:01:36;23.90;99.90
25949;DHT22;13961;51.178;4.448;2023-07-30T15:04:02;24.10;99.90
25949;DHT22;13961;51.178;4.448;2023-07-30T15:06:30;24.30;99.90
25949;DHT22;13961;51.178;4.448;2023-07-30T15:08:57;24.20;99.90
25949;DHT22;13961;51.178;4.448;2023-07-30T15:11:24;23.90;99.90
25949;DHT22;13961;51.178;4.448;2023-07-30T15:13:50;23.70;99.90
25949;DHT22;13961;51.178;4.448;2023-07-30T15:16:17;23.30;99.90
25949;DHT22;13961;51.178;4.448;2023-07-30T15:18:43;23.30;99.90
25949;DHT22;13961;51.178;4.448;2023-07-30T15:21:14;23.30;99.90
25949;DHT22;13961;51.178;4.448;2023-07-30T15:23:42;23.20;99.90
25949;DHT22;13961;51.178;4.448;2023-07-30T15:26:08;22.50;99.90
25949;DHT22;13961;51.178;4.448;2023-07-30T15:28:33;22.30;99.90
25949;DHT22;13961;51.178;4.448;2023-07-30T15:30:59;22.30;99.90
25949;DHT22;13961;51.178;4.448;2023-07-30T15:33:25;22.40;99.90